Angola, Louisiana
Current Conditions -  °F | °C
As of 4:15 AM on Friday 21 Nov 2014 (Local Time) from KHZR Reporting Station
Overcast Overcast  
Wind Chill: 48°   Ceiling: 10000
Heat Index: 48°   Visibility: 10mi
Dew Point: 46°   Wind: 3mph
Humidity: 90%   Direction: 80°E
Pressure: 30.22"   Gusts: NA
Location:  30.95°N, 91.57°W
Report Text: KHZR 211015Z AUTO 08003KT 10SM OVC100 09/08 A3022 RMK AO2 T00900075
Loading
Personal Weather Stations






























Interactive Weather Map New forecast layout! Learn more

10-Day Weather Forecast

Advertisements
Track Severe Weather on mobile